createdAt,value
2018-04-28T00:01:15.064Z,99.90
2018-04-28T00:03:42.604Z,99.90
2018-04-28T00:06:10.935Z,99.90
2018-04-28T00:08:39.192Z,99.90
2018-04-28T00:11:06.765Z,99.90
2018-04-28T00:13:34.330Z,99.90
2018-04-28T00:16:04.114Z,99.90
2018-04-28T00:18:31.651Z,99.90
2018-04-28T00:20:59.208Z,99.90
2018-04-28T00:23:26.775Z,99.90
2018-04-28T00:26:01.549Z,99.90
2018-04-28T00:28:36.928Z,99.90
2018-04-28T00:31:20.028Z,99.90
2018-04-28T00:33:48.408Z,99.90
2018-04-28T00:36:16.879Z,99.90
2018-04-28T00:39:01.895Z,99.90
2018-04-28T00:41:31.913Z,99.90
2018-04-28T00:44:17.135Z,99.90
2018-04-28T00:46:47.171Z,99.90
2018-04-28T00:49:19.056Z,99.90
2018-04-28T00:51:48.379Z,99.90
2018-04-28T00:54:29.316Z,99.90
2018-04-28T00:57:03.465Z,99.90
2018-04-28T00:59:31.042Z,99.90
2018-04-28T01:01:58.588Z,99.90
2018-04-28T01:04:38.196Z,99.90
2018-04-28T01:07:06.511Z,99.90
2018-04-28T01:09:34.078Z,99.90
2018-04-28T01:12:01.627Z,99.90
2018-04-28T01:14:36.000Z,99.90
2018-04-28T01:17:03.542Z,99.90
2018-04-28T01:22:44.950Z,99.90
2018-04-28T01:25:16.071Z,99.90
2018-04-28T01:27:46.215Z,99.90
2018-04-28T01:30:20.395Z,99.90
2018-04-28T01:36:08.737Z,99.90
2018-04-28T01:38:37.134Z,99.90
2018-04-28T01:41:14.502Z,99.90
2018-04-28T01:43:48.585Z,99.90
2018-04-28T01:46:21.707Z,99.90
2018-04-28T01:48:50.016Z,99.90
2018-04-28T01:51:23.502Z,99.90
2018-04-28T01:57:00.130Z,99.90
2018-04-28T01:59:41.907Z,99.90
2018-04-28T02:02:10.138Z,99.90
2018-04-28T02:04:39.586Z,99.90
2018-04-28T02:07:07.924Z,99.90
2018-04-28T02:09:54.726Z,99.90
2018-04-28T02:12:31.662Z,99.90
2018-04-28T02:15:05.099Z,99.90
2018-04-28T02:17:35.111Z,99.90
2018-04-28T02:20:05.420Z,99.90
2018-04-28T02:25:50.250Z,99.90
2018-04-28T02:28:25.487Z,99.90
2018-04-28T02:31:04.858Z,99.90
2018-04-28T02:33:32.414Z,99.90
2018-04-28T02:36:05.843Z,99.90
2018-04-28T02:38:35.314Z,99.90
2018-04-28T02:44:01.181Z,99.90
2018-04-28T02:46:32.435Z,99.90
2018-04-28T02:49:06.308Z,99.90
2018-04-28T02:54:37.031Z,99.90
2018-04-28T03:00:29.809Z,99.90
2018-04-28T03:03:00.287Z,99.90
2018-04-28T03:05:33.266Z,99.90
2018-04-28T03:08:09.134Z,99.90
2018-04-28T03:10:43.198Z,99.90
2018-04-28T03:13:13.512Z,99.90
2018-04-28T03:15:41.841Z,99.90
2018-04-28T03:18:09.383Z,99.90
2018-04-28T03:20:45.843Z,99.90
2018-04-28T03:23:21.763Z,99.90
2018-04-28T03:25:52.258Z,99.90
2018-04-28T03:28:38.290Z,99.90
2018-04-28T03:31:10.435Z,99.90
2018-04-28T03:33:44.705Z,99.90
2018-04-28T03:36:18.078Z,99.90
2018-04-28T03:41:53.807Z,99.90
2018-04-28T03:47:44.145Z,99.90
2018-04-28T03:50:28.519Z,99.90
2018-04-28T03:53:05.771Z,99.90
2018-04-28T03:55:34.108Z,99.90
2018-04-28T03:58:13.402Z,99.90
2018-04-28T04:00:52.762Z,99.90
2018-04-28T04:03:21.815Z,99.90
2018-04-28T04:05:59.042Z,99.90
2018-04-28T04:08:38.690Z,99.90
2018-04-28T04:11:18.231Z,99.90
2018-04-28T04:13:50.666Z,99.90
2018-04-28T04:16:24.678Z,99.90
2018-04-28T04:19:04.031Z,99.90
2018-04-28T04:21:34.204Z,99.90
2018-04-28T04:24:07.263Z,99.90
2018-04-28T04:26:56.466Z,99.90
2018-04-28T04:29:47.521Z,99.90
2018-04-28T04:32:16.459Z,99.90
2018-04-28T04:34:50.424Z,99.90
2018-04-28T04:37:27.572Z,99.90
2018-04-28T04:39:55.903Z,99.90
2018-04-28T04:45:26.776Z,99.90
2018-04-28T04:47:56.755Z,99.90
2018-04-28T04:50:29.083Z,99.90
2018-04-28T04:53:09.365Z,99.90
2018-04-28T04:55:48.442Z,99.90
2018-04-28T04:58:18.899Z,99.90
2018-04-28T05:00:49.946Z,99.90
2018-04-28T05:03:23.115Z,99.90
2018-04-28T05:08:53.027Z,99.90
2018-04-28T05:11:22.177Z,99.90
2018-04-28T05:14:05.394Z,99.90
2018-04-28T05:16:40.635Z,99.90
2018-04-28T05:19:20.677Z,99.90
2018-04-28T05:21:54.565Z,99.90
2018-04-28T05:27:28.178Z,99.90
2018-04-28T05:30:02.386Z,99.40
2018-04-28T05:32:36.451Z,98.40
2018-04-28T05:35:13.735Z,98.20
2018-04-28T05:37:47.130Z,98.20
2018-04-28T05:40:26.686Z,98.20
2018-04-28T05:43:06.126Z,98.90
2018-04-28T05:45:48.471Z,98.90
2018-04-28T05:51:44.823Z,97.70
2018-04-28T05:54:20.860Z,97.10
2018-04-28T06:00:01.674Z,96.50
2018-04-28T06:02:38.888Z,96.10
2018-04-28T06:08:15.405Z,98.50
2018-04-28T06:10:49.508Z,97.40
2018-04-28T06:16:33.870Z,97.80
2018-04-28T06:19:08.963Z,97.60
2018-04-28T06:21:37.268Z,99.10
2018-04-28T06:24:04.932Z,99.10
2018-04-28T06:26:32.478Z,99.50
2018-04-28T06:29:00.811Z,97.80
2018-04-28T06:31:28.353Z,97.70
2018-04-28T06:33:55.918Z,98.20
2018-04-28T06:36:24.230Z,95.30
2018-04-28T06:38:51.789Z,95.20
2018-04-28T06:41:19.420Z,94.80
2018-04-28T06:43:46.920Z,93.80
2018-04-28T06:46:15.241Z,93.00
2018-04-28T06:48:42.798Z,93.10
2018-04-28T06:51:10.449Z,94.00
2018-04-28T06:53:37.931Z,92.60
2018-04-28T06:56:06.254Z,94.40
2018-04-28T06:58:33.931Z,94.20
2018-04-28T07:01:01.489Z,91.40
2018-04-28T07:03:29.027Z,93.60
2018-04-28T07:05:57.364Z,93.90
2018-04-28T07:08:24.907Z,93.90
2018-04-28T07:10:52.541Z,92.70
2018-04-28T07:13:20.038Z,94.10
2018-04-28T07:15:48.367Z,97.00
2018-04-28T07:18:15.906Z,97.00
2018-04-28T07:20:43.478Z,93.80
2018-04-28T07:23:11.019Z,94.10
2018-04-28T07:25:38.584Z,95.20
2018-04-28T07:28:06.129Z,91.50
2018-04-28T07:30:33.698Z,93.80
2018-04-28T07:33:01.346Z,91.50
2018-04-28T07:35:28.866Z,94.80
2018-04-28T07:37:56.403Z,91.50
2018-04-28T07:40:23.969Z,84.70
2018-04-28T07:42:51.507Z,80.60
2018-04-28T07:45:19.874Z,82.20
2018-04-28T07:47:47.415Z,82.10
2018-04-28T07:50:14.978Z,82.30
2018-04-28T07:52:42.510Z,86.70
2018-04-28T07:55:10.838Z,84.10
2018-04-28T07:57:38.383Z,84.20
2018-04-28T08:00:06.691Z,77.90
2018-04-28T08:02:34.255Z,77.70
2018-04-28T08:05:01.798Z,79.50
2018-04-28T08:07:30.135Z,84.80
2018-04-28T08:09:57.683Z,84.00
2018-04-28T08:12:25.318Z,75.70
2018-04-28T08:14:52.870Z,76.00
2018-04-28T08:17:21.202Z,70.50
2018-04-28T08:19:48.763Z,70.40
2018-04-28T08:22:17.115Z,66.00
2018-04-28T08:24:44.658Z,65.70
2018-04-28T08:27:12.224Z,65.90
2018-04-28T08:29:39.770Z,74.90
2018-04-28T08:32:07.332Z,74.30
2018-04-28T08:34:34.875Z,74.10
2018-04-28T08:37:02.484Z,63.90
2018-04-28T08:39:30.002Z,58.30
2018-04-28T08:41:57.570Z,59.00
2018-04-28T08:44:25.102Z,63.80
2018-04-28T08:46:53.426Z,64.40
2018-04-28T08:49:20.970Z,64.30
2018-04-28T08:51:49.292Z,64.30
2018-04-28T08:54:16.827Z,64.20
2018-04-28T08:56:45.276Z,69.50
2018-04-28T08:59:12.728Z,69.50
2018-04-28T09:01:40.286Z,74.10
2018-04-28T09:04:07.831Z,62.70
2018-04-28T09:06:36.198Z,66.30
2018-04-28T09:09:03.738Z,66.20
2018-04-28T09:11:31.306Z,70.20
2018-04-28T09:13:58.849Z,68.30
2018-04-28T09:16:26.418Z,74.90
2018-04-28T09:18:53.966Z,76.00
2018-04-28T09:21:21.530Z,67.00
2018-04-28T09:23:49.070Z,68.80
2018-04-28T09:26:16.733Z,67.20
2018-04-28T09:28:44.995Z,70.80
2018-04-28T09:31:12.570Z,70.50
2018-04-28T09:33:40.111Z,60.30
2018-04-28T09:36:08.459Z,60.00
2018-04-28T09:38:36.004Z,60.00
2018-04-28T09:41:03.579Z,54.70
2018-04-28T09:43:31.121Z,55.40
2018-04-28T09:45:59.434Z,60.00
2018-04-28T09:48:26.999Z,60.00
2018-04-28T09:50:55.308Z,53.30
2018-04-28T09:53:22.878Z,53.20
2018-04-28T09:55:50.415Z,50.00
2018-04-28T09:58:18.747Z,45.80
2018-04-28T10:00:50.863Z,45.80
2018-04-28T10:03:21.245Z,42.90
2018-04-28T10:05:48.825Z,43.90
2018-04-28T10:08:16.383Z,44.00
2018-04-28T10:10:43.932Z,42.70
2018-04-28T10:13:11.500Z,41.50
2018-04-28T10:15:39.052Z,40.40
2018-04-28T10:18:06.614Z,41.90
2018-04-28T10:20:34.155Z,43.90
2018-04-28T10:23:01.726Z,44.50
2018-04-28T10:25:29.271Z,45.30
2018-04-28T10:27:57.603Z,39.00
2018-04-28T10:30:25.150Z,38.90
2018-04-28T10:32:52.720Z,41.80
2018-04-28T10:35:20.271Z,41.20
2018-04-28T10:37:48.604Z,42.10
2018-04-28T10:40:16.163Z,42.20
2018-04-28T10:42:43.721Z,42.90
2018-04-28T10:45:11.267Z,44.00
2018-04-28T10:47:38.912Z,40.80
2018-04-28T10:50:07.195Z,39.90
2018-04-28T10:52:34.762Z,39.90
2018-04-28T10:55:02.310Z,36.50
2018-04-28T10:57:29.879Z,36.10
2018-04-28T10:59:57.421Z,38.40
2018-04-28T11:02:25.746Z,38.20
2018-04-28T11:04:53.294Z,38.20
2018-04-28T11:07:21.629Z,37.50
2018-04-28T11:09:49.176Z,37.50
2018-04-28T11:12:16.747Z,38.30
2018-04-28T11:14:44.294Z,40.20
2018-04-28T11:17:12.622Z,40.40
2018-04-28T11:19:40.212Z,40.30
2018-04-28T11:22:07.763Z,41.30
2018-04-28T11:24:35.307Z,40.50
2018-04-28T11:27:02.873Z,42.50
2018-04-28T11:29:31.186Z,39.40
2018-04-28T11:31:58.727Z,39.40
2018-04-28T11:34:27.060Z,40.10
2018-04-28T11:36:54.603Z,40.20
2018-04-28T11:39:22.167Z,38.40
2018-04-28T11:41:50.474Z,41.40
2018-04-28T11:44:18.046Z,41.50
2018-04-28T11:46:45.611Z,39.40
2018-04-28T11:49:13.174Z,39.30
2018-04-28T11:51:41.551Z,41.10
2018-04-28T11:54:09.076Z,41.10
2018-04-28T11:56:36.623Z,43.60
2018-04-28T11:59:04.230Z,43.40
2018-04-28T12:01:31.746Z,42.40
2018-04-28T12:04:00.077Z,42.50
2018-04-28T12:06:27.625Z,42.50
2018-04-28T12:08:55.197Z,43.70
2018-04-28T12:11:22.752Z,44.60
2018-04-28T12:13:51.075Z,43.70
2018-04-28T12:16:18.615Z,43.60
2018-04-28T12:18:46.184Z,43.60
2018-04-28T12:21:14.500Z,41.70
2018-04-28T12:23:42.061Z,41.70
2018-04-28T12:26:09.606Z,37.20
2018-04-28T12:28:37.938Z,38.70
2018-04-28T12:31:05.486Z,38.70
2018-04-28T12:33:33.052Z,40.50
2018-04-28T12:36:00.642Z,39.50
2018-04-28T12:38:28.186Z,41.50
2018-04-28T12:40:56.506Z,40.60
2018-04-28T12:43:24.063Z,40.60
2018-04-28T12:45:51.614Z,39.20
2018-04-28T12:48:19.942Z,39.90
2018-04-28T12:50:47.585Z,40.00
2018-04-28T12:53:15.086Z,43.00
2018-04-28T12:55:42.634Z,44.70
2018-04-28T12:58:10.198Z,43.50
2018-04-28T13:00:38.507Z,38.60
2018-04-28T13:03:06.077Z,38.60
2018-04-28T13:05:33.618Z,39.80
2018-04-28T13:08:01.947Z,39.50
2018-04-28T13:10:29.486Z,39.40
2018-04-28T13:12:57.790Z,41.20
2018-04-28T13:15:25.355Z,41.10
2018-04-28T13:17:52.895Z,42.20
2018-04-28T13:20:20.454Z,39.70
2018-04-28T13:22:48.004Z,38.20
2018-04-28T13:25:15.583Z,36.90
2018-04-28T13:27:43.126Z,39.00
2018-04-28T13:30:10.690Z,35.00
2018-04-28T13:32:38.237Z,34.30
2018-04-28T13:35:06.575Z,36.00
2018-04-28T13:37:34.119Z,35.50
2018-04-28T13:40:01.684Z,36.30
2018-04-28T13:42:29.992Z,32.90
2018-04-28T13:44:57.559Z,32.90
2018-04-28T13:47:25.102Z,33.90
2018-04-28T13:49:52.662Z,35.50
2018-04-28T13:52:20.202Z,34.60
2018-04-28T13:54:48.534Z,37.10
2018-04-28T13:57:16.838Z,40.70
2018-04-28T13:59:45.173Z,37.50
2018-04-28T14:02:12.720Z,37.60
2018-04-28T14:04:40.283Z,35.40
2018-04-28T14:07:07.819Z,38.50
2018-04-28T14:09:36.244Z,39.50
2018-04-28T14:12:03.726Z,39.50
2018-04-28T14:14:31.317Z,40.20
2018-04-28T14:16:58.866Z,39.60
2018-04-28T14:19:26.431Z,37.20
2018-04-28T14:21:53.983Z,37.40
2018-04-28T14:24:22.314Z,36.60
2018-04-28T14:26:49.859Z,36.60
2018-04-28T14:29:17.421Z,39.50
2018-04-28T14:31:45.731Z,40.00
2018-04-28T14:34:13.296Z,40.00
2018-04-28T14:36:40.843Z,37.10
2018-04-28T14:39:09.174Z,40.70
2018-04-28T14:41:36.725Z,40.70
2018-04-28T14:44:04.287Z,44.00
2018-04-28T14:46:32.597Z,36.20
2018-04-28T14:49:00.154Z,36.10
2018-04-28T14:51:27.700Z,37.30
2018-04-28T14:53:56.026Z,37.60
2018-04-28T14:56:23.573Z,37.20
2018-04-28T14:58:51.882Z,41.00
2018-04-28T15:01:19.466Z,40.30
2018-04-28T15:03:47.015Z,37.60
2018-04-28T15:06:14.578Z,38.80
2018-04-28T15:08:42.894Z,36.30
2018-04-28T15:11:10.460Z,36.30
2018-04-28T15:13:38.023Z,37.20
2018-04-28T15:16:05.575Z,38.00
2018-04-28T15:18:33.882Z,36.40
2018-04-28T15:21:01.456Z,36.30
2018-04-28T15:23:28.994Z,35.50
2018-04-28T15:25:56.551Z,37.20
2018-04-28T15:28:24.149Z,37.10
2018-04-28T15:30:51.682Z,38.40
2018-04-28T15:33:19.220Z,35.60
2018-04-28T15:35:47.330Z,36.40
2018-04-28T15:38:14.915Z,36.90
2018-04-28T15:40:42.483Z,37.50
2018-04-28T15:43:10.027Z,38.70
2018-04-28T15:45:37.592Z,39.60
2018-04-28T15:48:05.130Z,37.10
2018-04-28T15:50:33.463Z,38.80
2018-04-28T15:53:01.096Z,38.60
2018-04-28T15:55:28.759Z,38.80
2018-04-28T15:57:56.295Z,40.90
2018-04-28T16:00:23.860Z,40.90
2018-04-28T16:02:51.725Z,40.70
2018-04-28T16:05:20.281Z,38.60
2018-04-28T16:07:48.623Z,41.40
2018-04-28T16:10:16.196Z,41.40
2018-04-28T16:12:44.762Z,43.40
2018-04-28T16:15:12.766Z,42.30
2018-04-28T16:17:40.309Z,41.40
2018-04-28T16:20:07.875Z,38.60
2018-04-28T16:22:35.414Z,39.00
2018-04-28T16:25:02.984Z,37.30
2018-04-28T16:27:31.309Z,36.70
2018-04-28T16:29:58.891Z,36.70
2018-04-28T16:32:28.250Z,36.60
2018-04-28T16:34:55.819Z,36.60
2018-04-28T16:37:23.359Z,38.40
2018-04-28T16:39:51.690Z,34.80
2018-04-28T16:42:19.235Z,34.80
2018-04-28T16:44:46.785Z,37.10
2018-04-28T16:47:15.116Z,36.30
2018-04-28T16:49:42.658Z,36.30
2018-04-28T16:52:10.992Z,35.70
2018-04-28T16:54:38.539Z,35.70
2018-04-28T16:57:06.104Z,36.10
2018-04-28T16:59:33.650Z,37.70
2018-04-28T17:02:01.995Z,35.80
2018-04-28T17:04:29.544Z,35.70
2018-04-28T17:06:57.118Z,37.30
2018-04-28T17:09:24.654Z,38.60
2018-04-28T17:11:52.984Z,37.40
2018-04-28T17:14:20.526Z,37.40
2018-04-28T17:16:48.109Z,38.60
2018-04-28T17:19:15.650Z,37.60
2018-04-28T17:21:43.210Z,37.60
2018-04-28T17:24:10.755Z,38.00
2018-04-28T17:26:38.319Z,40.40
2018-04-28T17:29:05.861Z,39.90
2018-04-28T17:31:33.427Z,39.40
2018-04-28T17:34:00.977Z,38.20
2018-04-28T17:36:28.552Z,38.90
2018-04-28T17:38:56.094Z,39.50
2018-04-28T17:41:23.655Z,43.50
2018-04-28T17:43:51.200Z,41.80
2018-04-28T17:46:18.763Z,42.60
2018-04-28T17:48:46.306Z,44.10
2018-04-28T17:51:13.874Z,46.90
2018-04-28T17:53:41.418Z,48.20
2018-04-28T17:56:09.001Z,49.50
2018-04-28T17:58:36.539Z,50.00
2018-04-28T18:01:04.107Z,48.40
2018-04-28T18:03:31.647Z,49.00
2018-04-28T18:05:59.971Z,50.10
2018-04-28T18:08:27.515Z,50.10
2018-04-28T18:10:55.849Z,52.90
2018-04-28T18:13:23.392Z,52.90
2018-04-28T18:15:50.960Z,52.80
2018-04-28T18:18:18.502Z,53.30
2018-04-28T18:20:46.066Z,54.10
2018-04-28T18:23:13.605Z,56.00
2018-04-28T18:25:41.186Z,55.80
2018-04-28T18:28:09.523Z,65.80
2018-04-28T18:30:37.827Z,69.00
2018-04-28T18:33:05.391Z,68.90
2018-04-28T18:35:32.936Z,64.60
2018-04-28T18:38:00.498Z,65.50
2018-04-28T18:40:28.049Z,68.30
2018-04-28T18:42:55.618Z,72.30
2018-04-28T18:45:23.163Z,78.00
2018-04-28T18:47:50.726Z,79.80
2018-04-28T18:50:19.523Z,79.60
2018-04-28T18:52:47.940Z,90.10
2018-04-28T18:55:15.762Z,90.00
2018-04-28T18:57:44.116Z,90.50
2018-04-28T19:00:11.659Z,90.50
2018-04-28T19:02:39.222Z,90.90
2018-04-28T19:05:06.775Z,91.40
2018-04-28T19:07:35.113Z,94.40
2018-04-28T19:10:02.688Z,94.40
2018-04-28T19:12:30.295Z,95.90
2018-04-28T19:14:57.965Z,96.60
2018-04-28T19:17:25.534Z,97.30
2018-04-28T19:19:53.071Z,97.70
2018-04-28T19:22:20.634Z,98.40
2018-04-28T19:24:48.175Z,99.70
2018-04-28T19:27:16.507Z,99.50
2018-04-28T19:29:44.053Z,99.40
2018-04-28T19:32:11.619Z,99.90
2018-04-28T19:34:39.918Z,99.90
2018-04-28T19:37:07.483Z,99.90
2018-04-28T19:39:35.075Z,99.90
2018-04-28T19:42:02.642Z,99.90
2018-04-28T19:44:30.193Z,99.90
2018-04-28T19:46:57.841Z,99.90
2018-04-28T19:49:25.452Z,99.90
2018-04-28T19:51:53.027Z,99.90
2018-04-28T19:54:20.636Z,99.90
2018-04-28T19:56:48.235Z,99.90
2018-04-28T19:59:15.805Z,99.90
2018-04-28T20:01:43.354Z,99.90
2018-04-28T20:04:10.947Z,99.90
2018-04-28T20:06:39.271Z,99.90
2018-04-28T20:09:06.839Z,99.90
2018-04-28T20:11:34.386Z,99.90
2018-04-28T20:14:01.956Z,99.90
2018-04-28T20:16:29.532Z,99.90
2018-04-28T20:18:57.094Z,99.90
2018-04-28T20:21:24.643Z,99.90
2018-04-28T20:24:04.838Z,99.90
2018-04-28T20:26:32.383Z,99.90
2018-04-28T20:28:59.950Z,99.90
2018-04-28T20:31:27.508Z,99.90
2018-04-28T20:33:55.066Z,99.90
2018-04-28T20:36:22.631Z,99.90
2018-04-28T20:38:50.416Z,99.90
2018-04-28T20:41:17.900Z,99.90
2018-04-28T20:43:45.468Z,99.90
2018-04-28T20:46:13.014Z,99.90
2018-04-28T20:48:40.570Z,99.90
2018-04-28T20:51:08.874Z,99.90
2018-04-28T20:53:36.429Z,99.90
2018-04-28T20:56:04.796Z,99.90
2018-04-28T20:58:32.371Z,99.90
2018-04-28T21:00:59.913Z,99.90
2018-04-28T21:03:27.480Z,99.90
2018-04-28T21:05:55.034Z,99.90
2018-04-28T21:08:22.599Z,99.90
2018-04-28T21:10:50.144Z,99.90
2018-04-28T21:13:18.730Z,99.90
2018-04-28T21:15:47.197Z,99.90
2018-04-28T21:18:14.955Z,99.90
2018-04-28T21:20:43.538Z,99.90
2018-04-28T21:23:11.339Z,99.90
2018-04-28T21:25:39.975Z,99.90
2018-04-28T21:28:07.564Z,99.90
2018-04-28T21:30:35.935Z,99.90
2018-04-28T21:33:04.246Z,99.90
2018-04-28T21:35:32.586Z,99.90
2018-04-28T21:38:00.894Z,99.90
2018-04-28T21:40:28.462Z,99.90
2018-04-28T21:42:56.012Z,99.90
2018-04-28T21:45:23.582Z,99.90
2018-04-28T21:47:51.125Z,99.90
2018-04-28T21:50:18.691Z,99.90
2018-04-28T21:52:46.231Z,99.90
2018-04-28T21:55:13.803Z,99.90
2018-04-28T21:57:42.117Z,99.90
2018-04-28T22:00:09.683Z,99.90
2018-04-28T22:02:39.017Z,99.90
2018-04-28T22:05:06.590Z,99.90
2018-04-28T22:07:34.926Z,99.90
2018-04-28T22:10:02.491Z,99.90
2018-04-28T22:12:30.035Z,99.90
2018-04-28T22:14:57.612Z,99.90
2018-04-28T22:17:25.160Z,99.90
2018-04-28T22:19:52.724Z,99.90
2018-04-28T22:22:20.266Z,99.90
2018-04-28T22:24:48.598Z,99.90
2018-04-28T22:27:16.138Z,99.90
2018-04-28T22:29:44.479Z,99.90
2018-04-28T22:32:12.023Z,99.90
2018-04-28T22:34:39.562Z,99.90
2018-04-28T22:37:07.122Z,99.90
2018-04-28T22:39:34.676Z,99.90
2018-04-28T22:42:02.247Z,99.90
2018-04-28T22:44:29.792Z,99.90
2018-04-28T22:46:57.357Z,99.90
2018-04-28T22:49:24.907Z,99.90
2018-04-28T22:51:53.244Z,99.90
2018-04-28T22:54:20.800Z,99.90
2018-04-28T22:56:48.376Z,99.90
2018-04-28T22:59:15.923Z,99.90
2018-04-28T23:01:43.486Z,99.90
2018-04-28T23:04:11.799Z,99.90
2018-04-28T23:06:39.376Z,99.90
2018-04-28T23:09:06.928Z,99.90
2018-04-28T23:11:34.490Z,99.90
2018-04-28T23:14:02.795Z,99.90
2018-04-28T23:16:30.352Z,99.90
2018-04-28T23:18:57.900Z,99.90
2018-04-28T23:21:25.469Z,99.90
2018-04-28T23:23:53.007Z,99.90
2018-04-28T23:26:20.568Z,99.90
2018-04-28T23:28:48.154Z,99.90
2018-04-28T23:31:15.712Z,99.90
2018-04-28T23:33:43.255Z,99.90
2018-04-28T23:36:10.811Z,99.90
2018-04-28T23:38:39.125Z,99.90
2018-04-28T23:41:06.686Z,99.90
2018-04-28T23:43:34.234Z,99.90
2018-04-28T23:46:01.783Z,99.90
2018-04-28T23:48:29.338Z,99.90
2018-04-28T23:50:56.883Z,99.90
2018-04-28T23:53:24.454Z,99.90
2018-04-28T23:55:52.009Z,99.90
2018-04-28T23:58:20.369Z,99.90
